Аэропорт: Черновцы. Черновцы

ICAO: UKLN

METAR:
2018/05/20 23:00
UKLN 202300Z VRB01MPS 0600 0300NW FG FEW050 12/12 Q1022 R33/290360 NOSIG
METAR:
2018/04/12 18:36
TAF 
      AMD TAF 
      AMD UKLN 121932Z 1218//1303 CNL